Time;durP1;ratioP1;P1;durP2;ratioP2;P2;SDS_P1;SDS_P2;PMS_P1;PMS_P2;Temp;Humidity;BMP_temperature;BMP_pressure;BME280_temperature;BME280_humidity;BME280_pressure;Samples;Min_cycle;Max_cycle;Signal;HPM_P1;HPM_P2
2022/10/26 00:00:04;;;;;;;1.55;0.80;;;21.90;61.40;;;;;;4996803;28;20034;-68
2022/10/26 00:02:33;;;;;;;1.58;0.85;;;21.90;61.40;;;;;;4982117;28;20530;-68
2022/10/26 00:04:58;;;;;;;1.48;0.80;;;21.90;61.40;;;;;;4980855;28;20494;-68
2022/10/26 00:07:24;;;;;;;1.83;0.95;;;21.90;62.00;;;;;;4989414;28;20118;-68
2022/10/26 00:09:50;;;;;;;1.95;0.90;;;21.90;61.40;;;;;;4993186;28;20027;-68
2022/10/26 00:12:15;;;;;;;2.10;1.00;;;21.90;61.40;;;;;;4995848;28;20038;-68
2022/10/26 00:14:41;;;;;;;1.33;0.73;;;21.90;61.40;;;;;;4976674;28;20740;-68
2022/10/26 00:17:09;;;;;;;1.98;1.00;;;21.90;61.40;;;;;;4978694;28;20145;-69
2022/10/26 00:19:37;;;;;;;1.17;0.77;;;21.90;61.40;;;;;;4996013;28;20031;-68
2022/10/26 00:22:02;;;;;;;1.70;1.00;;;21.90;61.40;;;;;;4993957;28;20486;-68
2022/10/26 00:24:28;;;;;;;1.40;0.80;;;21.90;61.40;;;;;;4991563;28;20033;-68
2022/10/26 00:26:53;;;;;;;1.83;0.90;;;21.90;61.40;;;;;;4992324;28;20168;-68
2022/10/26 00:29:19;;;;;;;2.38;0.98;;;21.90;61.40;;;;;;4982384;28;20057;-68
2022/10/26 00:31:45;;;;;;;1.67;1.00;;;21.90;61.40;;;;;;4983457;28;20038;-69
2022/10/26 00:34:11;;;;;;;1.77;1.00;;;21.90;61.40;;;;;;4993905;28;20069;-68
2022/10/26 00:36:37;;;;;;;1.10;0.75;;;21.90;61.40;;;;;;4998051;28;20029;-68
2022/10/26 00:39:03;;;;;;;1.55;0.98;;;21.90;61.40;;;;;;4995043;28;20045;-68
2022/10/26 00:41:31;;;;;;;1.45;0.90;;;21.90;61.40;;;;;;4994661;28;20045;-68
2022/10/26 00:43:57;;;;;;;1.35;0.90;;;21.90;61.40;;;;;;4989802;28;20044;-68
2022/10/26 00:46:34;;;;;;;1.85;0.80;;;21.90;61.40;;;;;;4988993;28;20018;-68
2022/10/26 00:49:08;;;;;;;1.40;0.73;;;21.90;61.40;;;;;;4989769;28;20026;-68
2022/10/26 00:51:49;;;;;;;1.85;0.80;;;21.90;61.40;;;;;;4979345;28;20026;-68
2022/10/26 00:54:17;;;;;;;1.77;0.80;;;21.90;61.40;;;;;;4997919;28;20465;-68
2022/10/26 00:56:45;;;;;;;2.17;1.17;;;21.90;61.40;;;;;;4980236;28;20034;-68
2022/10/26 00:59:14;;;;;;;1.83;0.98;;;21.90;61.40;;;;;;4996463;28;20097;-68
2022/10/26 01:01:42;;;;;;;1.63;0.93;;;21.90;61.40;;;;;;4994291;28;20038;-68
2022/10/26 01:04:09;;;;;;;1.42;0.80;;;21.90;61.40;;;;;;4994992;28;20026;-68
2022/10/26 01:06:36;;;;;;;1.08;0.73;;;21.90;61.40;;;;;;4991011;28;20116;-68
2022/10/26 01:09:02;;;;;;;1.30;0.80;;;21.80;61.40;;;;;;4978546;28;20184;-68
2022/10/26 01:11:28;;;;;;;0.90;0.80;;;21.90;61.40;;;;;;4997157;28;20030;-68
2022/10/26 01:13:55;;;;;;;1.52;0.90;;;21.90;61.40;;;;;;4994601;28;20095;-69
2022/10/26 01:16:53;;;;;;;1.60;0.90;;;21.90;61.40;;;;;;4996877;28;20049;-68
2022/10/26 01:19:18;;;;;;;1.50;0.90;;;21.90;61.40;;;;;;4954887;28;20129;-68
2022/10/26 01:21:53;;;;;;;1.80;0.98;;;21.80;61.40;;;;;;4985542;28;20439;-68
2022/10/26 01:25:02;;;;;;;1.60;0.90;;;21.80;61.40;;;;;;4982695;28;20031;-68
2022/10/26 01:27:43;;;;;;;1.60;0.90;;;21.80;61.40;;;;;;4972019;28;20231;-68
2022/10/26 01:30:18;;;;;;;1.23;0.75;;;21.80;61.40;;;;;;4981189;28;20506;-68
2022/10/26 01:32:55;;;;;;;1.25;0.75;;;21.80;61.40;;;;;;4982815;28;20088;-68
2022/10/26 01:35:29;;;;;;;1.40;0.80;;;21.80;61.40;;;;;;4997388;28;20030;-68
2022/10/26 01:38:06;;;;;;;1.52;0.80;;;21.80;61.40;;;;;;4999588;28;20520;-68
2022/10/26 01:40:50;;;;;;;1.30;0.80;;;21.80;61.40;;;;;;4996941;28;20101;-68
2022/10/26 01:43:17;;;;;;;3.10;1.00;;;21.80;61.40;;;;;;4979435;28;20106;-68
2022/10/26 01:45:46;;;;;;;1.65;0.80;;;21.80;61.40;;;;;;4995515;28;20118;-68
2022/10/26 01:48:15;;;;;;;2.03;0.80;;;21.80;61.40;;;;;;4996214;28;20034;-68
2022/10/26 01:50:41;;;;;;;1.35;0.90;;;21.80;61.40;;;;;;4991473;28;20478;-68
2022/10/26 01:53:12;;;;;;;1.45;0.88;;;21.80;61.40;;;;;;4987744;28;20500;-68
2022/10/26 01:55:48;;;;;;;1.63;0.80;;;21.80;61.40;;;;;;4977464;28;20031;-68
2022/10/26 01:58:38;;;;;;;2.08;0.80;;;21.80;61.40;;;;;;4969837;28;20367;-68
2022/10/26 02:01:41;;;;;;;1.30;0.70;;;21.80;61.40;;;;;;4992194;28;20034;-68
2022/10/26 02:04:12;;;;;;;0.93;0.60;;;21.80;61.50;;;;;;4991542;28;20062;-68
2022/10/26 02:07:01;;;;;;;1.88;0.80;;;21.80;61.40;;;;;;4998502;28;20160;-68
2022/10/26 02:09:33;;;;;;;;;;;21.80;61.40;;;;;;4982652;28;20030;-68
2022/10/26 02:12:05;;;;;;;1.65;0.80;;;21.70;61.40;;;;;;4994354;28;19917;-68
2022/10/26 02:14:53;;;;;;;1.10;0.70;;;21.80;61.40;;;;;;4995079;28;20181;-67
2022/10/26 02:17:36;;;;;;;1.38;0.82;;;21.70;61.40;;;;;;4978607;28;20053;-68
2022/10/26 02:20:05;;;;;;;0.80;0.70;;;21.70;61.40;;;;;;4994379;28;20069;-68
2022/10/26 02:22:37;;;;;;;0.93;0.65;;;21.80;61.50;;;;;;4988190;28;20163;-68
2022/10/26 02:25:20;;;;;;;1.92;0.90;;;21.70;61.90;;;;;;4992491;28;20114;-68
2022/10/26 02:27:51;;;;;;;1.42;0.80;;;21.70;61.40;;;;;;4970562;28;20500;-68
2022/10/26 02:30:17;;;;;;;1.10;0.80;;;21.80;61.50;;;;;;4979641;28;20022;-68
2022/10/26 02:32:47;;;;;;;0.80;0.63;;;21.70;61.40;;;;;;4994871;28;20046;-68
2022/10/26 02:35:16;;;;;;;1.27;0.70;;;21.70;61.40;;;;;;4982075;28;20038;-68
2022/10/26 02:37:43;;;;;;;1.38;0.80;;;21.70;61.40;;;;;;4997820;28;20081;-68
2022/10/26 02:40:15;;;;;;;1.42;0.77;;;21.70;61.40;;;;;;4995988;28;20585;-68
2022/10/26 02:42:44;;;;;;;1.05;0.70;;;21.70;61.40;;;;;;4996798;28;20038;-68
2022/10/26 02:45:12;;;;;;;1.90;0.82;;;21.70;61.40;;;;;;4999266;28;20389;-68
2022/10/26 02:47:38;;;;;;;1.08;0.80;;;21.70;61.40;;;;;;5003393;28;20165;-68
2022/10/26 02:50:04;;;;;;;1.33;0.90;;;21.70;61.40;;;;;;4992686;28;20105;-68
2022/10/26 02:53:08;;;;;;;1.33;0.75;;;21.70;61.40;;;;;;4995985;28;20037;-68
2022/10/26 02:55:39;;;;;;;1.40;0.85;;;21.70;61.40;;;;;;4983623;28;20034;-68
2022/10/26 02:58:13;;;;;;;0.98;0.80;;;21.70;61.40;;;;;;5000250;28;20075;-68
2022/10/26 03:00:39;;;;;;;1.65;0.73;;;21.70;61.40;;;;;;4981187;28;20064;-68
2022/10/26 03:03:05;;;;;;;0.98;0.70;;;21.70;61.40;;;;;;4988218;28;20066;-69
2022/10/26 03:05:31;;;;;;;1.33;0.75;;;21.70;61.40;;;;;;4988316;28;20029;-68
2022/10/26 03:07:58;;;;;;;1.30;0.80;;;21.70;61.40;;;;;;4990096;28;20501;-68
2022/10/26 03:10:24;;;;;;;0.85;0.63;;;21.70;61.40;;;;;;4997198;28;20090;-68
2022/10/26 03:12:51;;;;;;;1.10;0.70;;;21.70;61.40;;;;;;4979282;28;20037;-68
2022/10/26 03:15:16;;;;;;;0.93;0.70;;;21.70;61.40;;;;;;4995555;28;20026;-68
2022/10/26 03:17:42;;;;;;;1.60;0.90;;;21.70;61.40;;;;;;4990423;28;20133;-68
2022/10/26 03:20:09;;;;;;;0.60;0.60;;;21.70;61.40;;;;;;4970163;28;20023;-68
2022/10/26 03:22:35;;;;;;;1.95;0.70;;;21.60;61.30;;;;;;5000690;28;20026;-68
2022/10/26 03:25:00;;;;;;;1.15;0.70;;;21.70;61.40;;;;;;5001357;28;20084;-68
2022/10/26 03:27:26;;;;;;;1.70;0.90;;;21.60;61.30;;;;;;4994064;28;20494;-68
2022/10/26 03:29:52;;;;;;;1.48;0.80;;;21.60;61.30;;;;;;4996317;28;20033;-68
2022/10/26 03:32:18;;;;;;;0.75;0.60;;;21.70;61.40;;;;;;4995513;28;20109;-68
2022/10/26 03:34:44;;;;;;;1.45;0.80;;;21.70;61.40;;;;;;4994776;28;20418;-68
2022/10/26 03:37:10;;;;;;;0.93;0.70;;;21.60;61.30;;;;;;4987291;28;20051;-68
2022/10/26 03:39:35;;;;;;;1.63;0.75;;;21.60;61.30;;;;;;4986968;28;20050;-67
2022/10/26 03:42:01;;;;;;;2.05;0.80;;;21.70;61.40;;;;;;4989151;28;20110;-68
2022/10/26 03:44:27;;;;;;;0.90;0.63;;;21.60;61.30;;;;;;4993165;28;20023;-68
2022/10/26 03:46:52;;;;;;;1.58;0.80;;;21.70;61.40;;;;;;4996090;28;20022;-69
2022/10/26 03:49:18;;;;;;;1.13;0.73;;;21.60;61.30;;;;;;4979010;28;20031;-68
2022/10/26 03:51:43;;;;;;;0.95;0.70;;;21.60;61.30;;;;;;5000210;28;20026;-68
2022/10/26 03:54:09;;;;;;;1.10;0.80;;;21.70;61.30;;;;;;4977458;28;20048;-67
2022/10/26 03:56:35;;;;;;;1.13;0.73;;;21.60;61.30;;;;;;4993134;28;20022;-68
2022/10/26 03:59:00;;;;;;;1.15;0.73;;;21.60;61.30;;;;;;4995478;28;20387;-68
2022/10/26 04:01:26;;;;;;;1.15;0.75;;;21.60;61.30;;;;;;4978945;28;20041;-67
2022/10/26 04:03:51;;;;;;;1.35;0.80;;;21.60;61.30;;;;;;4978990;28;20427;-67
2022/10/26 04:06:17;;;;;;;1.02;0.80;;;21.60;61.30;;;;;;4988229;28;20057;-67
2022/10/26 04:08:43;;;;;;;1.42;0.88;;;21.70;61.30;;;;;;4987085;28;20355;-67
2022/10/26 04:11:08;;;;;;;1.05;0.63;;;21.60;61.30;;;;;;4999093;28;20026;-67
2022/10/26 04:13:34;;;;;;;1.00;0.70;;;21.60;61.20;;;;;;4998290;28;20026;-67
2022/10/26 04:15:59;;;;;;;1.05;0.77;;;21.60;61.80;;;;;;4990025;28;20550;-67
2022/10/26 04:18:25;;;;;;;0.82;0.60;;;21.70;61.30;;;;;;4995000;28;20033;-67
2022/10/26 04:20:51;;;;;;;0.75;0.60;;;21.60;61.20;;;;;;4982680;28;20026;-67
2022/10/26 04:23:17;;;;;;;0.85;0.60;;;21.60;61.20;;;;;;4975084;28;20509;-67
2022/10/26 04:25:44;;;;;;;1.85;0.88;;;21.60;61.20;;;;;;4990968;28;20436;-67
2022/10/26 04:28:11;;;;;;;1.13;0.80;;;21.60;61.20;;;;;;4982560;28;20026;-67
2022/10/26 04:30:38;;;;;;;1.27;0.70;;;21.60;61.20;;;;;;4994934;28;20022;-67
2022/10/26 04:33:05;;;;;;;0.85;0.75;;;21.60;61.20;;;;;;4994821;28;20092;-67
2022/10/26 04:35:31;;;;;;;1.08;0.77;;;21.60;61.20;;;;;;4993541;28;20030;-67
2022/10/26 04:38:01;;;;;;;0.80;0.65;;;21.60;61.20;;;;;;4995293;28;20474;-67
2022/10/26 04:40:28;;;;;;;1.50;0.70;;;21.70;61.20;;;;;;4994606;28;20130;-67
2022/10/26 04:42:54;;;;;;;0.80;0.70;;;21.60;61.20;;;;;;4989328;28;20423;-67
2022/10/26 04:45:20;;;;;;;1.00;0.70;;;21.60;61.20;;;;;;4988919;28;20163;-66
2022/10/26 04:47:45;;;;;;;1.00;0.75;;;21.60;61.10;;;;;;4974339;28;20464;-67
2022/10/26 04:50:18;;;;;;;0.90;0.70;;;21.60;61.10;;;;;;4986987;28;20038;-67
2022/10/26 04:52:49;;;;;;;0.93;0.63;;;21.60;61.20;;;;;;4974304;28;20477;-67
2022/10/26 04:55:15;;;;;;;0.95;0.70;;;21.60;61.20;;;;;;4992794;28;20106;-67
2022/10/26 04:57:43;;;;;;;0.90;0.70;;;21.60;61.70;;;;;;4990964;28;20111;-67
2022/10/26 05:00:09;;;;;;;1.15;0.75;;;21.60;61.10;;;;;;4988738;28;20030;-68
2022/10/26 05:02:35;;;;;;;0.68;0.63;;;21.60;61.20;;;;;;4992165;28;20484;-67
2022/10/26 05:05:01;;;;;;;0.75;0.73;;;21.60;61.20;;;;;;4995900;28;20136;-67
2022/10/26 05:07:26;;;;;;;1.20;0.75;;;21.60;61.20;;;;;;4999141;28;20084;-68
2022/10/26 05:09:52;;;;;;;0.75;0.60;;;21.60;61.20;;;;;;4986551;28;20095;-66
2022/10/26 05:12:18;;;;;;;0.80;0.63;;;21.60;61.20;;;;;;4977870;28;20026;-67
2022/10/26 05:14:43;;;;;;;1.35;1.00;;;21.60;61.20;;;;;;4976670;28;20431;-67
2022/10/26 05:17:09;;;;;;;0.93;0.75;;;21.60;61.70;;;;;;4993343;28;20147;-66
2022/10/26 05:19:35;;;;;;;1.05;0.70;;;21.60;61.40;;;;;;4992977;28;20026;-64
2022/10/26 05:22:00;;;;;;;0.65;0.65;;;21.60;61.90;;;;;;4991159;28;20031;-66
2022/10/26 05:24:26;;;;;;;1.23;0.80;;;21.70;62.00;;;;;;4989095;28;20025;-66
2022/10/26 05:26:51;;;;;;;1.42;0.80;;;21.90;62.00;;;;;;4988615;28;20130;-63
2022/10/26 05:29:17;;;;;;;1.55;1.13;;;22.00;61.70;;;;;;4990138;28;20030;-65
2022/10/26 05:31:42;;;;;;;2.45;1.00;;;22.10;61.40;;;;;;4994203;28;20385;-66
2022/10/26 05:34:08;;;;;;;1.25;0.80;;;22.20;61.00;;;;;;4990301;28;20030;-64
2022/10/26 05:36:34;;;;;;;1.20;0.80;;;22.40;60.90;;;;;;4990559;28;20398;-66
2022/10/26 05:39:00;;;;;;;1.33;0.90;;;22.50;60.70;;;;;;4984818;28;20054;-66
2022/10/26 05:41:25;;;;;;;1.30;0.80;;;22.60;60.40;;;;;;4993792;28;20385;-64
2022/10/26 05:43:51;;;;;;;1.42;0.82;;;22.70;60.20;;;;;;4997954;28;20040;-65
2022/10/26 05:46:17;;;;;;;1.42;0.90;;;22.70;59.80;;;;;;4991837;28;20150;-67
2022/10/26 05:48:42;;;;;;;1.45;0.80;;;22.90;59.60;;;;;;4974510;28;20122;-67
2022/10/26 05:51:09;;;;;;;1.67;0.80;;;23.00;59.30;;;;;;4997557;28;20343;-65
2022/10/26 05:53:35;;;;;;;1.20;0.80;;;23.10;59.10;;;;;;4995222;28;20032;-65
2022/10/26 05:56:01;;;;;;;2.42;0.90;;;23.20;58.70;;;;;;4994732;28;20126;-63
2022/10/26 05:58:27;;;;;;;2.15;1.00;;;23.20;58.80;;;;;;4993767;28;20019;-65
2022/10/26 06:01:14;;;;;;;3.35;1.15;;;23.30;58.50;;;;;;4997245;28;20669;-67
2022/10/26 06:04:06;;;;;;;2.05;0.90;;;23.40;58.30;;;;;;4997437;28;20037;-65
2022/10/26 06:06:38;;;;;;;2.63;1.10;;;23.30;58.30;;;;;;4998649;28;20042;-65
2022/10/26 06:09:04;;;;;;;3.40;1.25;;;23.40;58.50;;;;;;4993184;28;20497;-64
2022/10/26 06:11:30;;;;;;;1.90;0.98;;;23.40;58.20;;;;;;4998060;28;20028;-64
2022/10/26 06:13:59;;;;;;;2.13;0.90;;;23.50;58.00;;;;;;4994675;28;20033;-64
2022/10/26 06:16:49;;;;;;;2.78;1.10;;;23.50;57.80;;;;;;4992597;28;20527;-65
2022/10/26 06:19:46;;;;;;;2.10;1.10;;;23.50;57.80;;;;;;4989632;28;20088;-64
2022/10/26 06:22:47;;;;;;;1.90;1.00;;;23.50;57.80;;;;;;5001289;28;20410;-67
2022/10/26 06:25:24;;;;;;;2.45;1.30;;;23.50;57.70;;;;;;5001197;28;20140;-66
2022/10/26 06:28:13;;;;;;;2.53;1.00;;;23.50;57.70;;;;;;4998757;28;20046;-66
2022/10/26 06:30:40;;;;;;;1.48;0.90;;;23.50;57.60;;;;;;4990797;28;20029;-66
2022/10/26 06:33:09;;;;;;;1.65;0.90;;;23.50;57.60;;;;;;5005937;28;20025;-64
2022/10/26 06:35:40;;;;;;;3.65;1.02;;;23.50;57.50;;;;;;4999466;28;20032;-65
2022/10/26 06:38:13;;;;;;;3.40;0.98;;;23.50;57.50;;;;;;4977943;28;20048;-64
2022/10/26 06:40:41;;;;;;;2.40;1.10;;;23.50;57.60;;;;;;5003221;28;20027;-66
2022/10/26 06:43:15;;;;;;;1.63;1.00;;;23.60;57.60;;;;;;5000302;28;20470;-67
2022/10/26 06:45:48;;;;;;;3.20;0.90;;;23.50;57.60;;;;;;4975271;28;20022;-65
2022/10/26 06:48:20;;;;;;;2.03;0.90;;;23.50;57.60;;;;;;4983357;28;20086;-65
2022/10/26 06:50:51;;;;;;;1.63;0.98;;;23.50;57.70;;;;;;4997927;28;20022;-67
2022/10/26 06:53:40;;;;;;;1.88;1.00;;;23.60;57.70;;;;;;4983054;28;20037;-65
2022/10/26 06:56:07;;;;;;;2.40;0.90;;;23.60;57.70;;;;;;4975922;28;20393;-66
2022/10/26 06:58:35;;;;;;;2.53;0.95;;;23.60;57.60;;;;;;4998666;28;20374;-67
2022/10/26 07:01:01;;;;;;;1.77;1.02;;;23.60;57.50;;;;;;5006575;28;20109;-66
2022/10/26 07:03:27;;;;;;;1.27;0.90;;;23.60;57.60;;;;;;5004305;28;20030;-67
2022/10/26 07:05:52;;;;;;;2.22;1.10;;;23.60;57.60;;;;;;4989380;28;20041;-63
2022/10/26 07:08:18;;;;;;;2.13;1.00;;;23.60;57.60;;;;;;4986735;28;20031;-66
2022/10/26 07:10:45;;;;;;;1.80;1.00;;;23.60;57.60;;;;;;4999421;28;20028;-69
2022/10/26 07:13:11;;;;;;;1.50;1.00;;;23.70;57.70;;;;;;4999402;28;20057;-67
2022/10/26 07:15:38;;;;;;;1.48;1.08;;;23.60;57.60;;;;;;4983711;28;20088;-67
2022/10/26 07:18:05;;;;;;;3.28;1.10;;;23.70;57.80;;;;;;4993122;28;20030;-66
2022/10/26 07:20:35;;;;;;;2.08;1.30;;;23.60;57.80;;;;;;4986748;28;20061;-66
2022/10/26 07:23:00;;;;;;;1.60;0.90;;;23.70;57.60;;;;;;4988034;28;20038;-66
2022/10/26 07:25:27;;;;;;;3.15;1.00;;;23.70;57.70;;;;;;4992131;28;20035;-67
2022/10/26 07:27:59;;;;;;;1.80;1.00;;;23.70;57.70;;;;;;4997330;28;20038;-67
2022/10/26 07:30:29;;;;;;;2.50;1.08;;;23.70;58.30;;;;;;4998371;28;20473;-68
2022/10/26 07:33:00;;;;;;;2.97;1.48;;;23.70;57.70;;;;;;4995657;28;20025;-66
2022/10/26 07:35:26;;;;;;;2.40;1.20;;;23.70;58.10;;;;;;4991562;28;20113;-69
2022/10/26 07:37:56;;;;;;;1.70;1.05;;;23.70;57.60;;;;;;5003935;28;20057;-66
2022/10/26 07:40:22;;;;;;;1.60;1.00;;;23.70;57.60;;;;;;5001764;28;20378;-65
2022/10/26 07:42:47;;;;;;;1.50;1.00;;;23.70;57.40;;;;;;4997145;28;20033;-68
2022/10/26 07:45:13;;;;;;;2.28;1.13;;;23.70;57.50;;;;;;4991334;28;20385;-68
2022/10/26 07:47:39;;;;;;;1.65;1.00;;;23.70;57.40;;;;;;4998667;28;20037;-68
2022/10/26 07:50:07;;;;;;;2.58;1.30;;;23.80;57.40;;;;;;4981618;28;20036;-67
2022/10/26 07:52:34;;;;;;;2.10;1.10;;;23.80;57.20;;;;;;4967023;28;20649;-66
2022/10/26 07:55:00;;;;;;;1.85;1.10;;;23.70;57.20;;;;;;4991087;28;20019;-64
2022/10/26 07:57:25;;;;;;;3.15;1.20;;;23.80;57.40;;;;;;4985809;28;20969;-64
2022/10/26 07:59:51;;;;;;;2.45;1.00;;;23.70;57.40;;;;;;4987046;28;20519;-66
2022/10/26 08:02:18;;;;;;;1.67;1.00;;;23.70;57.90;;;;;;4996192;28;20030;-67
2022/10/26 08:04:43;;;;;;;2.33;1.17;;;23.70;57.40;;;;;;4994540;28;20034;-63
2022/10/26 08:07:09;;;;;;;2.20;1.10;;;23.70;57.50;;;;;;4993523;28;20558;-66
2022/10/26 08:09:34;;;;;;;4.30;1.20;;;23.70;57.60;;;;;;4992938;28;20101;-67
2022/10/26 08:12:00;;;;;;;2.80;1.10;;;23.80;57.60;;;;;;4972101;28;20057;-66
2022/10/26 08:14:25;;;;;;;3.22;1.08;;;23.80;57.60;;;;;;4996956;28;20378;-66
2022/10/26 08:16:51;;;;;;;2.63;1.13;;;23.80;57.70;;;;;;5000838;28;20042;-65
2022/10/26 08:19:18;;;;;;;2.75;1.20;;;23.80;57.70;;;;;;4988329;28;20448;-65
2022/10/26 08:21:43;;;;;;;2.50;1.02;;;23.80;57.60;;;;;;4998221;28;20022;-65
2022/10/26 08:24:09;;;;;;;2.17;1.20;;;23.80;57.40;;;;;;4997250;28;20032;-65
2022/10/26 08:26:35;;;;;;;1.98;1.05;;;23.80;57.40;;;;;;4998100;28;20041;-66
2022/10/26 08:29:00;;;;;;;1.65;1.08;;;23.80;57.30;;;;;;4976309;28;20026;-68
2022/10/26 08:31:26;;;;;;;1.77;1.10;;;23.80;57.20;;;;;;4990708;28;20046;-68
2022/10/26 08:33:51;;;;;;;2.10;1.10;;;23.80;57.30;;;;;;4989406;28;20605;-66
2022/10/26 08:36:22;;;;;;;1.70;1.10;;;23.80;57.50;;;;;;4996266;28;20032;-65
2022/10/26 08:38:48;;;;;;;2.42;1.25;;;23.80;57.40;;;;;;4965636;28;20068;-67
2022/10/26 08:41:14;;;;;;;1.65;1.00;;;23.80;57.50;;;;;;4992286;28;20437;-65
2022/10/26 08:43:46;;;;;;;1.65;1.10;;;23.80;57.40;;;;;;4996099;28;20496;-65
2022/10/26 08:46:45;;;;;;;1.80;1.05;;;23.80;57.40;;;;;;4997599;28;20026;-64
2022/10/26 08:49:18;;;;;;;2.65;1.10;;;23.90;57.40;;;;;;4925996;28;20026;-65
2022/10/26 08:51:44;;;;;;;2.63;1.08;;;23.80;57.20;;;;;;4988703;28;20136;-64
2022/10/26 08:54:31;;;;;;;3.85;1.20;;;23.90;57.20;;;;;;4998072;28;20062;-67
2022/10/26 08:57:00;;;;;;;2.38;1.20;;;23.90;57.20;;;;;;4995445;28;20077;-65
2022/10/26 08:59:41;;;;;;;1.35;0.95;;;23.90;57.20;;;;;;4992221;28;20088;-64
2022/10/26 09:02:12;;;;;;;2.33;1.30;;;23.90;57.20;;;;;;4987070;28;20420;-65
2022/10/26 09:04:38;;;;;;;1.55;0.90;;;23.90;57.20;;;;;;4978675;28;20126;-67
2022/10/26 09:07:29;;;;;;;1.90;1.20;;;23.90;57.20;;;;;;4985151;28;20036;-66
2022/10/26 09:09:54;;;;;;;2.33;1.20;;;23.90;57.20;;;;;;4999211;28;20094;-65
2022/10/26 09:12:41;;;;;;;2.15;1.00;;;23.90;57.30;;;;;;4997263;28;20129;-65
2022/10/26 09:15:07;;;;;;;1.73;1.10;;;23.90;57.40;;;;;;4992982;28;20030;-64
2022/10/26 09:17:47;;;;;;;2.90;1.10;;;23.90;57.30;;;;;;4990739;28;20524;-67
2022/10/26 09:20:37;;;;;;;2.72;1.08;;;23.90;57.30;;;;;;4980542;28;20029;-65
2022/10/26 09:23:24;;;;;;;1.55;0.90;;;23.90;57.30;;;;;;4997950;28;20033;-65
2022/10/26 09:25:58;;;;;;;2.60;1.23;;;23.90;57.20;;;;;;4996131;28;20379;-64
2022/10/26 09:28:29;;;;;;;1.52;1.00;;;23.90;57.10;;;;;;4989344;28;20027;-65
2022/10/26 09:30:58;;;;;;;2.00;1.00;;;24.00;57.10;;;;;;4994705;28;20027;-64
2022/10/26 09:33:25;;;;;;;1.50;0.90;;;24.00;57.10;;;;;;4997871;28;20532;-65
2022/10/26 09:36:00;;;;;;;2.42;1.10;;;24.00;57.10;;;;;;4995875;28;20030;-67
2022/10/26 09:38:29;;;;;;;2.05;0.93;;;24.00;57.10;;;;;;4989305;28;20034;-66
2022/10/26 09:41:07;;;;;;;2.42;1.20;;;24.00;57.10;;;;;;4982903;28;20443;-67
2022/10/26 09:44:14;;;;;;;1.55;0.95;;;24.00;57.20;;;;;;4988533;28;20034;-67
2022/10/26 09:46:51;;;;;;;1.70;1.13;;;24.00;57.10;;;;;;4997922;28;20085;-66
2022/10/26 09:49:22;;;;;;;3.58;1.20;;;24.00;56.90;;;;;;4988788;28;20025;-65
2022/10/26 09:51:48;;;;;;;2.03;1.02;;;24.00;56.90;;;;;;4990959;28;20025;-64
2022/10/26 09:54:16;;;;;;;1.60;1.10;;;24.00;56.80;;;;;;5001663;28;20026;-65
2022/10/26 09:56:50;;;;;;;1.97;1.20;;;24.00;56.80;;;;;;4989813;28;20117;-66
2022/10/26 09:59:19;;;;;;;1.23;0.88;;;24.00;56.80;;;;;;5006678;28;20037;-64
2022/10/26 10:01:44;;;;;;;1.38;0.98;;;24.00;56.90;;;;;;5004568;28;20092;-65
2022/10/26 10:04:16;;;;;;;1.58;1.00;;;24.00;56.90;;;;;;4977322;28;20441;-67
2022/10/26 10:06:48;;;;;;;2.42;1.00;;;24.00;56.90;;;;;;4996924;28;20023;-66
2022/10/26 10:09:20;;;;;;;1.65;1.00;;;24.00;56.80;;;;;;5005408;28;20023;-64
2022/10/26 10:11:56;;;;;;;1.88;1.20;;;24.00;56.80;;;;;;4999684;28;20482;-63
2022/10/26 10:14:30;;;;;;;1.80;1.00;;;24.00;56.70;;;;;;5001338;28;20026;-65
2022/10/26 10:16:57;;;;;;;1.70;1.00;;;24.00;56.70;;;;;;4995930;28;20057;-65
2022/10/26 10:19:34;;;;;;;1.75;1.10;;;24.00;56.60;;;;;;4985819;28;20493;-66
2022/10/26 10:22:11;;;;;;;1.60;1.10;;;24.00;56.60;;;;;;4996233;28;20100;-66
2022/10/26 10:24:40;;;;;;;1.33;0.90;;;24.00;56.60;;;;;;4998513;28;20378;-65
2022/10/26 10:27:14;;;;;;;1.65;1.00;;;24.10;56.60;;;;;;4991492;28;20029;-65
2022/10/26 10:29:45;;;;;;;2.05;1.00;;;24.10;56.60;;;;;;4982553;28;20512;-65
2022/10/26 10:32:21;;;;;;;2.13;1.25;;;24.10;56.60;;;;;;4991967;28;20110;-64
2022/10/26 10:34:51;;;;;;;2.03;1.05;;;24.10;56.60;;;;;;4985765;28;20030;-64
2022/10/26 10:37:44;;;;;;;2.50;1.00;;;24.10;56.60;;;;;;4982591;28;20030;-66
2022/10/26 10:40:22;;;;;;;1.80;0.98;;;24.10;56.50;;;;;;5000419;28;20035;-64
2022/10/26 10:42:50;;;;;;;1.33;0.90;;;24.10;56.60;;;;;;4996084;28;20065;-64
2022/10/26 10:45:28;;;;;;;1.88;1.05;;;24.10;56.70;;;;;;4997137;28;20029;-64
2022/10/26 10:48:04;;;;;;;2.10;1.10;;;24.10;56.60;;;;;;4991078;28;20425;-64
2022/10/26 10:50:32;;;;;;;2.72;1.27;;;24.10;56.60;;;;;;4996001;28;20460;-64
2022/10/26 10:53:22;;;;;;;2.15;1.10;;;24.10;56.60;;;;;;4998860;28;20477;-63
2022/10/26 10:56:07;;;;;;;1.60;1.00;;;24.10;56.60;;;;;;5000612;28;20445;-64
2022/10/26 10:58:41;;;;;;;2.33;1.05;;;24.10;56.60;;;;;;5003432;28;20051;-65
2022/10/26 11:01:16;;;;;;;1.63;1.08;;;24.10;56.60;;;;;;4995800;28;20061;-63
2022/10/26 11:03:42;;;;;;;1.65;0.93;;;24.10;56.70;;;;;;4999325;28;20034;-66
2022/10/26 11:06:20;;;;;;;1.80;1.02;;;24.10;56.70;;;;;;4973741;28;20035;-65
2022/10/26 11:08:56;;;;;;;1.17;1.00;;;24.10;56.70;;;;;;4998047;28;20399;-64
2022/10/26 11:11:27;;;;;;;1.48;1.00;;;24.10;56.70;;;;;;4995696;28;20026;-64
2022/10/26 11:14:18;;;;;;;2.08;1.10;;;24.10;56.80;;;;;;4995366;28;20049;-65
2022/10/26 11:16:51;;;;;;;2.88;1.00;;;24.10;56.80;;;;;;4997745;28;20047;-63
2022/10/26 11:19:27;;;;;;;1.48;1.00;;;24.10;56.80;;;;;;5000157;28;20084;-64
2022/10/26 11:21:55;;;;;;;2.58;1.20;;;24.10;56.80;;;;;;5000546;28;20037;-63
2022/10/26 11:24:42;;;;;;;2.67;1.00;;;24.10;56.90;;;;;;4985547;28;20110;-64
2022/10/26 11:27:21;;;;;;;1.75;0.90;;;24.10;56.80;;;;;;4987589;28;20162;-63
2022/10/26 11:29:57;;;;;;;1.33;0.90;;;24.10;56.80;;;;;;4971056;28;20501;-64
2022/10/26 11:32:27;;;;;;;1.40;1.00;;;24.10;56.90;;;;;;4978426;28;20030;-63
2022/10/26 11:35:17;;;;;;;1.33;0.80;;;24.20;57.00;;;;;;4989260;28;20118;-64
2022/10/26 11:37:53;;;;;;;1.65;1.00;;;24.20;57.00;;;;;;4983407;28;20081;-62
2022/10/26 11:40:25;;;;;;;3.00;1.08;;;24.20;57.00;;;;;;4993133;28;20428;-64
2022/10/26 11:43:19;;;;;;;1.65;1.05;;;24.20;57.00;;;;;;4998622;28;20477;-65
2022/10/26 11:45:50;;;;;;;1.75;1.00;;;24.20;57.00;;;;;;5004331;28;20123;-66
2022/10/26 11:48:30;;;;;;;1.05;0.95;;;24.20;57.00;;;;;;4990987;28;20023;-64
2022/10/26 11:50:58;;;;;;;1.50;0.90;;;24.30;57.70;;;;;;4989579;28;20782;-63
2022/10/26 11:53:39;;;;;;;1.52;0.98;;;24.30;57.20;;;;;;4984845;28;20473;-63
2022/10/26 11:56:18;;;;;;;1.75;1.05;;;24.20;57.10;;;;;;5003373;28;20017;-63
2022/10/26 11:58:45;;;;;;;1.50;0.93;;;24.30;57.10;;;;;;4994987;28;20485;-63
2022/10/26 12:01:14;;;;;;;1.67;1.10;;;24.30;57.10;;;;;;4989376;28;20034;-64
2022/10/26 12:03:45;;;;;;;;;;;24.30;57.70;;;;;;4989007;28;20038;-64
2022/10/26 12:06:17;;;;;;;2.30;1.30;;;24.30;57.20;;;;;;4974696;28;20396;-63
2022/10/26 12:08:50;;;;;;;1.90;0.95;;;24.30;57.10;;;;;;4994408;28;20141;-64
2022/10/26 12:11:54;;;;;;;1.95;1.00;;;24.30;57.10;;;;;;4986365;28;20054;-64
2022/10/26 12:14:38;;;;;;;1.52;1.10;;;24.30;57.10;;;;;;4968639;28;20565;-65
2022/10/26 12:17:20;;;;;;;1.13;1.00;;;24.30;57.10;;;;;;4986685;28;20054;-67
2022/10/26 12:20:17;;;;;;;1.58;1.10;;;24.30;57.10;;;;;;5091894;27;20127;-65
2022/10/26 12:22:44;;;;;;;1.65;1.00;;;24.30;57.10;;;;;;5074739;28;20499;-68
2022/10/26 12:25:12;;;;;;;1.73;1.08;;;24.30;57.10;;;;;;5075870;28;20029;-65
2022/10/26 12:27:38;;;;;;;1.58;1.00;;;24.30;57.10;;;;;;5075025;28;20044;-66
2022/10/26 12:30:17;;;;;;;1.50;1.10;;;24.30;57.10;;;;;;5078851;28;20024;-64
2022/10/26 12:32:43;;;;;;;1.50;1.10;;;24.30;57.10;;;;;;5078585;28;20475;-64
2022/10/26 12:35:36;;;;;;;1.42;1.00;;;24.30;57.10;;;;;;5077427;28;20047;-66
2022/10/26 12:38:45;;;;;;;1.77;1.10;;;24.40;57.20;;;;;;5083295;28;20055;-67
2022/10/26 12:41:18;;;;;;;2.05;1.10;;;24.40;57.20;;;;;;5072272;28;20020;-64
2022/10/26 12:43:44;;;;;;;1.80;1.00;;;24.40;57.10;;;;;;5080146;28;20048;-64
2022/10/26 12:46:12;;;;;;;1.65;0.93;;;24.40;57.10;;;;;;5073307;28;20480;-65
2022/10/26 12:48:40;;;;;;;2.15;1.00;;;24.40;57.20;;;;;;5082637;28;20043;-64
2022/10/26 12:51:20;;;;;;;1.42;0.80;;;24.40;57.20;;;;;;5073858;28;20029;-64
2022/10/26 12:54:09;;;;;;;1.27;0.88;;;24.40;57.10;;;;;;5074008;28;20060;-63
2022/10/26 12:56:53;;;;;;;1.73;0.80;;;24.40;57.10;;;;;;5075414;28;20116;-66
2022/10/26 12:59:47;;;;;;;3.03;1.42;;;24.40;57.20;;;;;;5071629;28;20713;-65
2022/10/26 13:02:50;;;;;;;1.80;0.98;;;24.40;57.20;;;;;;5072749;28;20047;-65
2022/10/26 13:05:38;;;;;;;1.40;0.90;;;24.40;57.10;;;;;;5076096;28;20093;-65
2022/10/26 13:08:10;;;;;;;1.23;0.90;;;24.40;57.10;;;;;;5070560;28;20063;-65
2022/10/26 13:10:39;;;;;;;1.10;0.90;;;24.50;57.00;;;;;;5074876;28;20025;-65